Pawnee, Oklahoma
Current Conditions -  °F | °C
As of 5:53 PM on Sunday 23 Nov 2014 (Local Time) from KSWO Reporting Station
Light Rain Light Rain  
Wind Chill: 39°   Ceiling: 2200
Heat Index: 47°   Visibility: 10mi
Dew Point: 40°   Wind: 22mph
Humidity: 77%   Direction: 330°NNW
Pressure: 29.52"   Gusts: 30mph
Location:  36.34°N, 96.8°W
Report Text: KSWO 232353Z AUTO 33019G26KT 10SM -RA OVC022 08/04 A2952 RMK AO2 PK WND 33032/2315 RAB51 SLP994 P0000 60000 T00830044 10189 20083 53058
Loading
Personal Weather Stations






























Interactive Weather Map New forecast layout! Learn more

10-Day Weather Forecast

Advertisements
Track Severe Weather on mobile